sensor_id;sensor_type;location;lat;lon;timestamp;P1;durP1;ratioP1;P2;durP2;ratioP2
11427;SDS011;5770;44.504;11.346;2023-06-14T00:00:18;8.50;;;3.25;;
11427;SDS011;5770;44.504;11.346;2023-06-14T00:02:45;3.45;;;2.97;;
11427;SDS011;5770;44.504;11.346;2023-06-14T00:05:12;4.10;;;2.83;;
11427;SDS011;5770;44.504;11.346;2023-06-14T00:07:41;2.83;;;2.60;;
11427;SDS011;5770;44.504;11.346;2023-06-14T00:10:09;5.22;;;3.00;;
11427;SDS011;5770;44.504;11.346;2023-06-14T00:12:37;5.57;;;3.53;;
11427;SDS011;5770;44.504;11.346;2023-06-14T00:15:05;4.97;;;3.08;;
11427;SDS011;5770;44.504;11.346;2023-06-14T00:17:34;5.10;;;2.88;;
11427;SDS011;5770;44.504;11.346;2023-06-14T00:20:02;6.00;;;2.90;;
11427;SDS011;5770;44.504;11.346;2023-06-14T00:22:32;6.78;;;2.92;;
11427;SDS011;5770;44.504;11.346;2023-06-14T00:25:03;5.93;;;3.03;;
11427;SDS011;5770;44.504;11.346;2023-06-14T00:27:31;3.47;;;2.63;;
11427;SDS011;5770;44.504;11.346;2023-06-14T00:29:58;4.90;;;2.90;;
11427;SDS011;5770;44.504;11.346;2023-06-14T00:32:25;11.80;;;2.90;;
11427;SDS011;5770;44.504;11.346;2023-06-14T00:34:53;4.05;;;2.58;;
11427;SDS011;5770;44.504;11.346;2023-06-14T00:37:20;4.80;;;2.70;;
11427;SDS011;5770;44.504;11.346;2023-06-14T00:39:48;5.30;;;2.60;;
11427;SDS011;5770;44.504;11.346;2023-06-14T00:42:24;6.18;;;2.75;;
11427;SDS011;5770;44.504;11.346;2023-06-14T00:44:54;5.43;;;3.10;;
11427;SDS011;5770;44.504;11.346;2023-06-14T00:47:21;4.95;;;2.70;;
11427;SDS011;5770;44.504;11.346;2023-06-14T00:49:48;3.70;;;2.80;;
11427;SDS011;5770;44.504;11.346;2023-06-14T00:52:17;4.65;;;3.13;;
11427;SDS011;5770;44.504;11.346;2023-06-14T00:54:44;5.25;;;3.10;;
11427;SDS011;5770;44.504;11.346;2023-06-14T00:57:11;5.65;;;2.78;;
11427;SDS011;5770;44.504;11.346;2023-06-14T00:59:42;5.30;;;2.83;;
11427;SDS011;5770;44.504;11.346;2023-06-14T01:02:11;6.97;;;3.15;;
11427;SDS011;5770;44.504;11.346;2023-06-14T01:04:40;3.70;;;2.58;;
11427;SDS011;5770;44.504;11.346;2023-06-14T01:07:12;5.80;;;2.75;;
11427;SDS011;5770;44.504;11.346;2023-06-14T01:09:46;7.60;;;2.97;;
11427;SDS011;5770;44.504;11.346;2023-06-14T01:12:17;5.00;;;2.40;;
11427;SDS011;5770;44.504;11.346;2023-06-14T01:14:52;4.38;;;2.60;;
11427;SDS011;5770;44.504;11.346;2023-06-14T01:17:21;3.80;;;2.40;;
11427;SDS011;5770;44.504;11.346;2023-06-14T01:19:52;4.32;;;2.53;;
11427;SDS011;5770;44.504;11.346;2023-06-14T01:22:23;5.45;;;2.63;;
11427;SDS011;5770;44.504;11.346;2023-06-14T01:24:52;2.47;;;2.28;;
11427;SDS011;5770;44.504;11.346;2023-06-14T01:27:21;7.90;;;2.70;;
11427;SDS011;5770;44.504;11.346;2023-06-14T01:29:53;8.50;;;2.97;;
11427;SDS011;5770;44.504;11.346;2023-06-14T01:32:21;8.32;;;2.78;;
11427;SDS011;5770;44.504;11.346;2023-06-14T01:34:49;3.05;;;2.78;;
11427;SDS011;5770;44.504;11.346;2023-06-14T01:37:16;3.78;;;2.80;;
11427;SDS011;5770;44.504;11.346;2023-06-14T01:39:43;5.68;;;2.88;;
11427;SDS011;5770;44.504;11.346;2023-06-14T01:42:13;3.40;;;3.10;;
11427;SDS011;5770;44.504;11.346;2023-06-14T01:44:41;3.05;;;2.70;;
11427;SDS011;5770;44.504;11.346;2023-06-14T01:47:09;5.78;;;3.08;;
11427;SDS011;5770;44.504;11.346;2023-06-14T01:49:38;3.63;;;2.70;;
11427;SDS011;5770;44.504;11.346;2023-06-14T01:52:05;3.58;;;2.60;;
11427;SDS011;5770;44.504;11.346;2023-06-14T01:54:34;5.15;;;3.30;;
11427;SDS011;5770;44.504;11.346;2023-06-14T01:57:06;3.97;;;2.78;;
11427;SDS011;5770;44.504;11.346;2023-06-14T01:59:36;10.43;;;2.75;;
11427;SDS011;5770;44.504;11.346;2023-06-14T02:02:04;5.43;;;2.40;;
11427;SDS011;5770;44.504;11.346;2023-06-14T02:04:31;4.63;;;2.50;;
11427;SDS011;5770;44.504;11.346;2023-06-14T02:06:58;6.03;;;2.33;;
11427;SDS011;5770;44.504;11.346;2023-06-14T02:09:26;4.38;;;2.53;;
11427;SDS011;5770;44.504;11.346;2023-06-14T02:11:53;5.22;;;2.50;;
11427;SDS011;5770;44.504;11.346;2023-06-14T02:14:21;3.60;;;2.53;;
11427;SDS011;5770;44.504;11.346;2023-06-14T02:16:49;4.70;;;2.65;;
11427;SDS011;5770;44.504;11.346;2023-06-14T02:19:18;4.30;;;2.28;;
11427;SDS011;5770;44.504;11.346;2023-06-14T02:21:45;4.93;;;2.70;;
11427;SDS011;5770;44.504;11.346;2023-06-14T02:24:13;6.53;;;2.90;;
11427;SDS011;5770;44.504;11.346;2023-06-14T02:26:41;5.60;;;2.45;;
11427;SDS011;5770;44.504;11.346;2023-06-14T02:29:08;4.70;;;2.50;;
11427;SDS011;5770;44.504;11.346;2023-06-14T02:31:37;4.80;;;2.67;;
11427;SDS011;5770;44.504;11.346;2023-06-14T02:34:06;4.05;;;2.63;;
11427;SDS011;5770;44.504;11.346;2023-06-14T02:36:33;4.78;;;2.50;;
11427;SDS011;5770;44.504;11.346;2023-06-14T02:39:06;5.65;;;2.42;;
11427;SDS011;5770;44.504;11.346;2023-06-14T02:41:35;5.13;;;2.40;;
11427;SDS011;5770;44.504;11.346;2023-06-14T02:44:02;3.50;;;2.55;;
11427;SDS011;5770;44.504;11.346;2023-06-14T02:46:30;3.28;;;2.40;;
11427;SDS011;5770;44.504;11.346;2023-06-14T02:48:56;9.35;;;2.38;;
11427;SDS011;5770;44.504;11.346;2023-06-14T02:51:27;3.85;;;2.70;;
11427;SDS011;5770;44.504;11.346;2023-06-14T02:53:54;5.80;;;2.70;;
11427;SDS011;5770;44.504;11.346;2023-06-14T02:56:22;4.80;;;2.30;;
11427;SDS011;5770;44.504;11.346;2023-06-14T02:58:51;2.95;;;2.60;;
11427;SDS011;5770;44.504;11.346;2023-06-14T03:01:18;6.15;;;2.55;;
11427;SDS011;5770;44.504;11.346;2023-06-14T03:03:46;7.68;;;2.90;;
11427;SDS011;5770;44.504;11.346;2023-06-14T03:06:13;4.40;;;2.40;;
11427;SDS011;5770;44.504;11.346;2023-06-14T03:08:43;3.40;;;2.38;;
11427;SDS011;5770;44.504;11.346;2023-06-14T03:11:10;10.15;;;2.60;;
11427;SDS011;5770;44.504;11.346;2023-06-14T03:13:37;2.70;;;2.50;;
11427;SDS011;5770;44.504;11.346;2023-06-14T03:16:05;5.70;;;2.70;;
11427;SDS011;5770;44.504;11.346;2023-06-14T03:18:33;2.80;;;2.25;;
11427;SDS011;5770;44.504;11.346;2023-06-14T03:21:01;4.75;;;2.60;;
11427;SDS011;5770;44.504;11.346;2023-06-14T03:23:28;3.65;;;2.33;;
11427;SDS011;5770;44.504;11.346;2023-06-14T03:25:57;2.80;;;2.60;;
11427;SDS011;5770;44.504;11.346;2023-06-14T03:28:24;4.60;;;2.70;;
11427;SDS011;5770;44.504;11.346;2023-06-14T03:30:51;3.95;;;2.55;;
11427;SDS011;5770;44.504;11.346;2023-06-14T03:33:18;3.95;;;2.55;;
11427;SDS011;5770;44.504;11.346;2023-06-14T03:35:46;3.95;;;2.50;;
11427;SDS011;5770;44.504;11.346;2023-06-14T03:38:13;6.50;;;2.88;;
11427;SDS011;5770;44.504;11.346;2023-06-14T03:40:40;3.15;;;2.85;;
11427;SDS011;5770;44.504;11.346;2023-06-14T03:43:08;10.60;;;2.97;;
11427;SDS011;5770;44.504;11.346;2023-06-14T03:45:35;2.80;;;2.30;;
11427;SDS011;5770;44.504;11.346;2023-06-14T03:48:03;4.18;;;2.40;;
11427;SDS011;5770;44.504;11.346;2023-06-14T03:50:31;3.17;;;2.40;;
11427;SDS011;5770;44.504;11.346;2023-06-14T03:52:59;3.13;;;2.50;;
11427;SDS011;5770;44.504;11.346;2023-06-14T03:55:27;5.72;;;2.70;;
11427;SDS011;5770;44.504;11.346;2023-06-14T03:57:56;3.47;;;2.70;;
11427;SDS011;5770;44.504;11.346;2023-06-14T04:00:25;3.47;;;2.67;;
11427;SDS011;5770;44.504;11.346;2023-06-14T04:02:52;3.67;;;2.20;;
11427;SDS011;5770;44.504;11.346;2023-06-14T04:05:19;5.22;;;2.70;;
11427;SDS011;5770;44.504;11.346;2023-06-14T04:07:46;4.30;;;2.30;;
11427;SDS011;5770;44.504;11.346;2023-06-14T04:10:15;5.13;;;2.60;;
11427;SDS011;5770;44.504;11.346;2023-06-14T04:12:43;6.43;;;2.47;;
11427;SDS011;5770;44.504;11.346;2023-06-14T04:15:10;5.15;;;2.72;;
11427;SDS011;5770;44.504;11.346;2023-06-14T04:17:38;3.72;;;2.35;;
11427;SDS011;5770;44.504;11.346;2023-06-14T04:20:07;6.30;;;2.50;;
11427;SDS011;5770;44.504;11.346;2023-06-14T04:22:35;3.97;;;2.60;;
11427;SDS011;5770;44.504;11.346;2023-06-14T04:25:03;7.88;;;3.10;;
11427;SDS011;5770;44.504;11.346;2023-06-14T04:27:31;4.60;;;2.50;;
11427;SDS011;5770;44.504;11.346;2023-06-14T04:29:59;6.40;;;2.28;;
11427;SDS011;5770;44.504;11.346;2023-06-14T04:32:28;5.38;;;2.60;;
11427;SDS011;5770;44.504;11.346;2023-06-14T04:34:59;9.52;;;2.85;;
11427;SDS011;5770;44.504;11.346;2023-06-14T04:37:28;3.28;;;2.35;;
11427;SDS011;5770;44.504;11.346;2023-06-14T04:39:55;4.05;;;2.47;;
11427;SDS011;5770;44.504;11.346;2023-06-14T04:42:23;5.57;;;2.70;;
11427;SDS011;5770;44.504;11.346;2023-06-14T04:44:55;5.75;;;2.47;;
11427;SDS011;5770;44.504;11.346;2023-06-14T04:47:23;3.95;;;2.78;;
11427;SDS011;5770;44.504;11.346;2023-06-14T04:49:54;2.65;;;2.22;;
11427;SDS011;5770;44.504;11.346;2023-06-14T04:52:23;5.40;;;2.55;;
11427;SDS011;5770;44.504;11.346;2023-06-14T04:54:51;4.63;;;2.60;;
11427;SDS011;5770;44.504;11.346;2023-06-14T04:57:19;2.75;;;2.30;;
11427;SDS011;5770;44.504;11.346;2023-06-14T04:59:47;2.78;;;2.42;;
11427;SDS011;5770;44.504;11.346;2023-06-14T05:02:20;6.10;;;2.55;;
11427;SDS011;5770;44.504;11.346;2023-06-14T05:04:49;4.57;;;2.67;;
11427;SDS011;5770;44.504;11.346;2023-06-14T05:07:16;2.53;;;2.33;;
11427;SDS011;5770;44.504;11.346;2023-06-14T05:09:45;4.25;;;2.42;;
11427;SDS011;5770;44.504;11.346;2023-06-14T05:12:12;5.03;;;2.80;;
11427;SDS011;5770;44.504;11.346;2023-06-14T05:14:43;4.10;;;2.40;;
11427;SDS011;5770;44.504;11.346;2023-06-14T05:17:09;4.18;;;2.55;;
11427;SDS011;5770;44.504;11.346;2023-06-14T05:19:36;4.60;;;2.30;;
11427;SDS011;5770;44.504;11.346;2023-06-14T05:22:04;3.58;;;2.60;;
11427;SDS011;5770;44.504;11.346;2023-06-14T05:24:31;5.45;;;2.85;;
11427;SDS011;5770;44.504;11.346;2023-06-14T05:26:59;6.18;;;2.53;;
11427;SDS011;5770;44.504;11.346;2023-06-14T05:29:29;3.38;;;2.42;;
11427;SDS011;5770;44.504;11.346;2023-06-14T05:31:56;3.88;;;2.67;;
11427;SDS011;5770;44.504;11.346;2023-06-14T05:34:23;3.67;;;2.28;;
11427;SDS011;5770;44.504;11.346;2023-06-14T05:36:50;4.85;;;2.78;;
11427;SDS011;5770;44.504;11.346;2023-06-14T05:39:17;5.28;;;2.38;;
11427;SDS011;5770;44.504;11.346;2023-06-14T05:41:44;3.05;;;2.47;;
11427;SDS011;5770;44.504;11.346;2023-06-14T05:44:13;3.45;;;2.50;;
11427;SDS011;5770;44.504;11.346;2023-06-14T05:46:40;2.40;;;2.20;;
11427;SDS011;5770;44.504;11.346;2023-06-14T05:49:07;3.13;;;2.58;;
11427;SDS011;5770;44.504;11.346;2023-06-14T05:51:34;4.03;;;2.40;;
11427;SDS011;5770;44.504;11.346;2023-06-14T05:54:01;2.75;;;2.47;;
11427;SDS011;5770;44.504;11.346;2023-06-14T05:56:28;4.65;;;2.88;;
11427;SDS011;5770;44.504;11.346;2023-06-14T05:58:55;6.05;;;2.65;;
11427;SDS011;5770;44.504;11.346;2023-06-14T06:01:24;4.90;;;2.40;;
11427;SDS011;5770;44.504;11.346;2023-06-14T06:03:51;4.72;;;2.60;;
11427;SDS011;5770;44.504;11.346;2023-06-14T06:06:18;3.78;;;2.45;;
11427;SDS011;5770;44.504;11.346;2023-06-14T06:08:46;4.10;;;2.58;;
11427;SDS011;5770;44.504;11.346;2023-06-14T06:11:13;2.65;;;2.45;;
11427;SDS011;5770;44.504;11.346;2023-06-14T06:13:41;4.55;;;2.30;;
11427;SDS011;5770;44.504;11.346;2023-06-14T06:16:08;4.65;;;2.70;;
11427;SDS011;5770;44.504;11.346;2023-06-14T06:18:36;4.20;;;2.45;;
11427;SDS011;5770;44.504;11.346;2023-06-14T06:21:04;6.20;;;2.65;;
11427;SDS011;5770;44.504;11.346;2023-06-14T06:23:31;2.70;;;2.50;;
11427;SDS011;5770;44.504;11.346;2023-06-14T06:25:58;3.05;;;2.22;;
11427;SDS011;5770;44.504;11.346;2023-06-14T06:28:25;7.47;;;2.75;;
11427;SDS011;5770;44.504;11.346;2023-06-14T06:30:53;3.75;;;2.53;;
11427;SDS011;5770;44.504;11.346;2023-06-14T06:33:20;4.55;;;2.60;;
11427;SDS011;5770;44.504;11.346;2023-06-14T06:35:50;4.28;;;2.15;;
11427;SDS011;5770;44.504;11.346;2023-06-14T06:38:17;5.72;;;2.63;;
11427;SDS011;5770;44.504;11.346;2023-06-14T06:40:44;5.68;;;2.70;;
11427;SDS011;5770;44.504;11.346;2023-06-14T06:43:12;6.65;;;2.42;;
11427;SDS011;5770;44.504;11.346;2023-06-14T06:45:41;6.30;;;2.40;;
11427;SDS011;5770;44.504;11.346;2023-06-14T06:48:11;7.18;;;2.85;;
11427;SDS011;5770;44.504;11.346;2023-06-14T06:50:38;2.55;;;2.15;;
11427;SDS011;5770;44.504;11.346;2023-06-14T06:53:07;3.17;;;2.42;;
11427;SDS011;5770;44.504;11.346;2023-06-14T06:55:34;4.50;;;2.55;;
11427;SDS011;5770;44.504;11.346;2023-06-14T06:58:02;3.40;;;2.47;;
11427;SDS011;5770;44.504;11.346;2023-06-14T07:00:30;7.18;;;2.55;;
11427;SDS011;5770;44.504;11.346;2023-06-14T07:02:59;6.30;;;3.22;;
11427;SDS011;5770;44.504;11.346;2023-06-14T07:05:37;8.23;;;3.60;;
11427;SDS011;5770;44.504;11.346;2023-06-14T07:08:04;9.80;;;3.15;;
11427;SDS011;5770;44.504;11.346;2023-06-14T07:10:33;15.25;;;4.15;;
11427;SDS011;5770;44.504;11.346;2023-06-14T07:13:02;8.57;;;4.30;;
11427;SDS011;5770;44.504;11.346;2023-06-14T07:15:30;7.57;;;4.80;;
11427;SDS011;5770;44.504;11.346;2023-06-14T07:17:57;8.27;;;4.53;;
11427;SDS011;5770;44.504;11.346;2023-06-14T07:20:25;6.40;;;4.38;;
11427;SDS011;5770;44.504;11.346;2023-06-14T07:22:53;8.35;;;4.13;;
11427;SDS011;5770;44.504;11.346;2023-06-14T07:25:20;12.52;;;4.13;;
11427;SDS011;5770;44.504;11.346;2023-06-14T07:27:49;10.65;;;4.40;;
11427;SDS011;5770;44.504;11.346;2023-06-14T07:30:16;11.75;;;4.60;;
11427;SDS011;5770;44.504;11.346;2023-06-14T07:32:44;9.25;;;4.55;;
11427;SDS011;5770;44.504;11.346;2023-06-14T07:35:11;6.32;;;5.00;;
11427;SDS011;5770;44.504;11.346;2023-06-14T07:37:38;11.15;;;4.30;;
11427;SDS011;5770;44.504;11.346;2023-06-14T07:40:06;8.77;;;4.32;;
11427;SDS011;5770;44.504;11.346;2023-06-14T07:42:35;9.98;;;4.50;;
11427;SDS011;5770;44.504;11.346;2023-06-14T07:45:04;9.45;;;4.35;;
11427;SDS011;5770;44.504;11.346;2023-06-14T07:47:32;10.25;;;4.40;;
11427;SDS011;5770;44.504;11.346;2023-06-14T07:49:59;7.85;;;4.32;;
11427;SDS011;5770;44.504;11.346;2023-06-14T07:52:26;11.18;;;4.82;;
11427;SDS011;5770;44.504;11.346;2023-06-14T07:54:53;8.07;;;4.15;;
11427;SDS011;5770;44.504;11.346;2023-06-14T07:57:21;71.05;;;9.77;;
11427;SDS011;5770;44.504;11.346;2023-06-14T07:59:48;4.35;;;3.95;;
11427;SDS011;5770;44.504;11.346;2023-06-14T08:02:17;9.75;;;4.32;;
11427;SDS011;5770;44.504;11.346;2023-06-14T08:04:44;10.13;;;4.78;;
11427;SDS011;5770;44.504;11.346;2023-06-14T08:07:11;6.78;;;4.57;;
11427;SDS011;5770;44.504;11.346;2023-06-14T08:09:39;6.43;;;4.88;;
11427;SDS011;5770;44.504;11.346;2023-06-14T08:12:06;8.68;;;5.22;;
11427;SDS011;5770;44.504;11.346;2023-06-14T08:14:34;9.18;;;5.75;;
11427;SDS011;5770;44.504;11.346;2023-06-14T08:17:02;9.70;;;5.05;;
11427;SDS011;5770;44.504;11.346;2023-06-14T08:19:31;6.07;;;4.03;;
11427;SDS011;5770;44.504;11.346;2023-06-14T08:21:58;7.00;;;4.60;;
11427;SDS011;5770;44.504;11.346;2023-06-14T08:24:25;6.50;;;4.40;;
11427;SDS011;5770;44.504;11.346;2023-06-14T08:26:53;6.45;;;4.90;;
11427;SDS011;5770;44.504;11.346;2023-06-14T08:29:21;5.30;;;4.55;;
11427;SDS011;5770;44.504;11.346;2023-06-14T08:31:48;8.85;;;5.50;;
11427;SDS011;5770;44.504;11.346;2023-06-14T08:34:15;6.75;;;4.90;;
11427;SDS011;5770;44.504;11.346;2023-06-14T08:36:43;21.05;;;5.97;;
11427;SDS011;5770;44.504;11.346;2023-06-14T08:39:10;18.98;;;6.35;;
11427;SDS011;5770;44.504;11.346;2023-06-14T08:41:38;7.75;;;6.05;;
11427;SDS011;5770;44.504;11.346;2023-06-14T08:44:05;8.82;;;5.18;;
11427;SDS011;5770;44.504;11.346;2023-06-14T08:46:32;5.45;;;4.93;;
11427;SDS011;5770;44.504;11.346;2023-06-14T08:49:00;6.15;;;4.35;;
11427;SDS011;5770;44.504;11.346;2023-06-14T08:51:28;5.82;;;5.20;;
11427;SDS011;5770;44.504;11.346;2023-06-14T08:54:00;8.38;;;5.22;;
11427;SDS011;5770;44.504;11.346;2023-06-14T08:56:29;8.68;;;5.70;;
11427;SDS011;5770;44.504;11.346;2023-06-14T08:58:59;8.18;;;4.90;;
11427;SDS011;5770;44.504;11.346;2023-06-14T09:01:28;6.45;;;5.10;;
11427;SDS011;5770;44.504;11.346;2023-06-14T09:03:56;8.80;;;5.70;;
11427;SDS011;5770;44.504;11.346;2023-06-14T09:06:24;10.65;;;7.00;;
11427;SDS011;5770;44.504;11.346;2023-06-14T09:08:53;11.20;;;6.55;;
11427;SDS011;5770;44.504;11.346;2023-06-14T09:11:23;13.23;;;6.40;;
11427;SDS011;5770;44.504;11.346;2023-06-14T09:13:51;8.30;;;6.65;;
11427;SDS011;5770;44.504;11.346;2023-06-14T09:16:19;7.70;;;6.65;;
11427;SDS011;5770;44.504;11.346;2023-06-14T09:18:48;8.20;;;5.72;;
11427;SDS011;5770;44.504;11.346;2023-06-14T09:21:15;10.77;;;6.35;;
11427;SDS011;5770;44.504;11.346;2023-06-14T09:23:44;9.23;;;5.03;;
11427;SDS011;5770;44.504;11.346;2023-06-14T09:26:13;9.32;;;6.20;;
11427;SDS011;5770;44.504;11.346;2023-06-14T09:28:42;7.63;;;5.43;;
11427;SDS011;5770;44.504;11.346;2023-06-14T09:31:10;7.28;;;6.05;;
11427;SDS011;5770;44.504;11.346;2023-06-14T09:33:37;9.57;;;5.78;;
11427;SDS011;5770;44.504;11.346;2023-06-14T09:36:06;8.15;;;6.18;;
11427;SDS011;5770;44.504;11.346;2023-06-14T09:38:36;8.40;;;5.38;;
11427;SDS011;5770;44.504;11.346;2023-06-14T09:41:04;7.35;;;6.65;;
11427;SDS011;5770;44.504;11.346;2023-06-14T09:43:31;8.13;;;5.85;;
11427;SDS011;5770;44.504;11.346;2023-06-14T09:46:01;7.90;;;5.78;;
11427;SDS011;5770;44.504;11.346;2023-06-14T09:48:30;8.98;;;5.80;;
11427;SDS011;5770;44.504;11.346;2023-06-14T09:50:57;9.40;;;6.35;;
11427;SDS011;5770;44.504;11.346;2023-06-14T09:53:25;7.55;;;5.13;;
11427;SDS011;5770;44.504;11.346;2023-06-14T09:55:53;8.55;;;5.00;;
11427;SDS011;5770;44.504;11.346;2023-06-14T09:58:21;5.53;;;4.90;;
11427;SDS011;5770;44.504;11.346;2023-06-14T10:00:50;7.55;;;5.85;;
11427;SDS011;5770;44.504;11.346;2023-06-14T10:03:21;6.18;;;5.53;;
11427;SDS011;5770;44.504;11.346;2023-06-14T10:05:51;6.97;;;5.35;;
11427;SDS011;5770;44.504;11.346;2023-06-14T10:08:23;6.00;;;4.85;;
11427;SDS011;5770;44.504;11.346;2023-06-14T10:10:51;7.53;;;5.55;;
11427;SDS011;5770;44.504;11.346;2023-06-14T10:13:19;6.55;;;5.18;;
11427;SDS011;5770;44.504;11.346;2023-06-14T10:15:54;6.95;;;5.38;;
11427;SDS011;5770;44.504;11.346;2023-06-14T10:18:31;5.68;;;4.90;;
11427;SDS011;5770;44.504;11.346;2023-06-14T10:21:06;7.13;;;5.20;;
11427;SDS011;5770;44.504;11.346;2023-06-14T10:23:37;4.43;;;4.00;;
11427;SDS011;5770;44.504;11.346;2023-06-14T10:26:05;4.22;;;3.83;;
11427;SDS011;5770;44.504;11.346;2023-06-14T10:28:32;7.97;;;4.15;;
11427;SDS011;5770;44.504;11.346;2023-06-14T10:31:03;5.32;;;4.70;;
11427;SDS011;5770;44.504;11.346;2023-06-14T10:33:35;8.18;;;5.15;;
11427;SDS011;5770;44.504;11.346;2023-06-14T10:36:09;7.57;;;4.65;;
11427;SDS011;5770;44.504;11.346;2023-06-14T10:38:56;5.15;;;4.20;;
11427;SDS011;5770;44.504;11.346;2023-06-14T10:41:24;6.05;;;3.97;;
11427;SDS011;5770;44.504;11.346;2023-06-14T10:43:52;4.60;;;4.20;;
11427;SDS011;5770;44.504;11.346;2023-06-14T10:46:36;5.43;;;3.65;;
11427;SDS011;5770;44.504;11.346;2023-06-14T10:49:05;4.07;;;3.55;;
11427;SDS011;5770;44.504;11.346;2023-06-14T10:51:38;3.88;;;3.47;;
11427;SDS011;5770;44.504;11.346;2023-06-14T10:54:11;4.40;;;3.85;;
11427;SDS011;5770;44.504;11.346;2023-06-14T10:56:41;3.67;;;3.38;;
11427;SDS011;5770;44.504;11.346;2023-06-14T10:59:12;5.60;;;3.33;;
11427;SDS011;5770;44.504;11.346;2023-06-14T11:01:41;5.97;;;3.78;;
11427;SDS011;5770;44.504;11.346;2023-06-14T11:04:10;5.25;;;3.67;;
11427;SDS011;5770;44.504;11.346;2023-06-14T11:06:45;6.97;;;3.50;;
11427;SDS011;5770;44.504;11.346;2023-06-14T11:11:57;5.07;;;3.58;;
11427;SDS011;5770;44.504;11.346;2023-06-14T11:14:25;8.18;;;3.30;;
11427;SDS011;5770;44.504;11.346;2023-06-14T11:16:52;5.75;;;3.30;;
11427;SDS011;5770;44.504;11.346;2023-06-14T11:19:21;3.85;;;3.55;;
11427;SDS011;5770;44.504;11.346;2023-06-14T11:21:49;5.07;;;3.60;;
11427;SDS011;5770;44.504;11.346;2023-06-14T11:24:16;6.10;;;3.60;;
11427;SDS011;5770;44.504;11.346;2023-06-14T11:26:44;5.00;;;3.80;;
11427;SDS011;5770;44.504;11.346;2023-06-14T11:29:11;5.95;;;3.95;;
11427;SDS011;5770;44.504;11.346;2023-06-14T11:31:38;7.70;;;4.18;;
11427;SDS011;5770;44.504;11.346;2023-06-14T11:34:11;4.25;;;3.70;;
11427;SDS011;5770;44.504;11.346;2023-06-14T11:36:40;4.95;;;4.00;;
11427;SDS011;5770;44.504;11.346;2023-06-14T11:39:08;4.38;;;3.42;;
11427;SDS011;5770;44.504;11.346;2023-06-14T11:41:36;4.13;;;3.80;;
11427;SDS011;5770;44.504;11.346;2023-06-14T11:44:03;5.35;;;4.10;;
11427;SDS011;5770;44.504;11.346;2023-06-14T11:46:31;8.43;;;4.85;;
11427;SDS011;5770;44.504;11.346;2023-06-14T11:48:58;5.70;;;3.97;;
11427;SDS011;5770;44.504;11.346;2023-06-14T11:51:28;11.13;;;3.78;;
11427;SDS011;5770;44.504;11.346;2023-06-14T11:53:57;4.20;;;3.80;;
11427;SDS011;5770;44.504;11.346;2023-06-14T11:56:24;8.38;;;4.40;;
11427;SDS011;5770;44.504;11.346;2023-06-14T11:58:52;5.13;;;4.05;;
11427;SDS011;5770;44.504;11.346;2023-06-14T12:01:22;7.10;;;4.40;;
11427;SDS011;5770;44.504;11.346;2023-06-14T12:03:51;5.30;;;4.43;;
11427;SDS011;5770;44.504;11.346;2023-06-14T12:06:25;5.47;;;4.18;;
11427;SDS011;5770;44.504;11.346;2023-06-14T12:08:56;5.40;;;3.88;;
11427;SDS011;5770;44.504;11.346;2023-06-14T12:11:27;4.50;;;4.10;;
11427;SDS011;5770;44.504;11.346;2023-06-14T12:13:58;5.38;;;4.03;;
11427;SDS011;5770;44.504;11.346;2023-06-14T12:16:30;4.32;;;3.88;;
11427;SDS011;5770;44.504;11.346;2023-06-14T12:19:08;4.60;;;4.13;;
11427;SDS011;5770;44.504;11.346;2023-06-14T12:21:36;5.38;;;4.25;;
11427;SDS011;5770;44.504;11.346;2023-06-14T12:24:07;4.55;;;4.10;;
11427;SDS011;5770;44.504;11.346;2023-06-14T12:26:37;4.93;;;4.10;;
11427;SDS011;5770;44.504;11.346;2023-06-14T12:29:06;6.97;;;4.28;;
11427;SDS011;5770;44.504;11.346;2023-06-14T12:31:33;4.63;;;4.22;;
11427;SDS011;5770;44.504;11.346;2023-06-14T12:34:00;4.57;;;4.18;;
11427;SDS011;5770;44.504;11.346;2023-06-14T12:36:27;8.68;;;4.45;;
11427;SDS011;5770;44.504;11.346;2023-06-14T12:38:54;6.30;;;4.32;;
11427;SDS011;5770;44.504;11.346;2023-06-14T12:41:25;5.45;;;4.25;;
11427;SDS011;5770;44.504;11.346;2023-06-14T12:43:52;8.77;;;4.55;;
11427;SDS011;5770;44.504;11.346;2023-06-14T12:46:20;6.65;;;5.00;;
11427;SDS011;5770;44.504;11.346;2023-06-14T12:48:47;4.75;;;4.32;;
11427;SDS011;5770;44.504;11.346;2023-06-14T12:51:14;4.43;;;4.10;;
11427;SDS011;5770;44.504;11.346;2023-06-14T12:53:44;6.68;;;4.30;;
11427;SDS011;5770;44.504;11.346;2023-06-14T12:56:11;4.50;;;4.10;;
11427;SDS011;5770;44.504;11.346;2023-06-14T12:58:39;5.43;;;4.38;;
11427;SDS011;5770;44.504;11.346;2023-06-14T13:01:06;5.63;;;3.85;;
11427;SDS011;5770;44.504;11.346;2023-06-14T13:03:34;5.85;;;4.25;;
11427;SDS011;5770;44.504;11.346;2023-06-14T13:06:00;4.63;;;3.90;;
11427;SDS011;5770;44.504;11.346;2023-06-14T13:08:29;4.72;;;3.95;;
11427;SDS011;5770;44.504;11.346;2023-06-14T13:10:56;7.10;;;4.00;;
11427;SDS011;5770;44.504;11.346;2023-06-14T13:13:23;5.10;;;4.13;;
11427;SDS011;5770;44.504;11.346;2023-06-14T13:15:52;5.25;;;3.70;;
11427;SDS011;5770;44.504;11.346;2023-06-14T13:18:20;3.83;;;3.53;;
11427;SDS011;5770;44.504;11.346;2023-06-14T13:20:52;4.28;;;3.50;;
11427;SDS011;5770;44.504;11.346;2023-06-14T13:23:38;4.53;;;4.05;;
11427;SDS011;5770;44.504;11.346;2023-06-14T13:26:05;5.88;;;3.63;;
11427;SDS011;5770;44.504;11.346;2023-06-14T13:28:32;4.90;;;4.45;;
11427;SDS011;5770;44.504;11.346;2023-06-14T13:31:01;5.60;;;3.75;;
11427;SDS011;5770;44.504;11.346;2023-06-14T13:33:28;5.57;;;3.83;;
11427;SDS011;5770;44.504;11.346;2023-06-14T13:35:56;4.90;;;3.85;;
11427;SDS011;5770;44.504;11.346;2023-06-14T13:38:23;4.15;;;3.72;;
11427;SDS011;5770;44.504;11.346;2023-06-14T13:40:50;6.53;;;3.90;;
11427;SDS011;5770;44.504;11.346;2023-06-14T13:43:17;6.43;;;4.30;;
11427;SDS011;5770;44.504;11.346;2023-06-14T13:45:44;6.22;;;4.03;;
11427;SDS011;5770;44.504;11.346;2023-06-14T13:48:12;5.25;;;4.25;;
11427;SDS011;5770;44.504;11.346;2023-06-14T13:50:40;6.22;;;3.90;;
11427;SDS011;5770;44.504;11.346;2023-06-14T13:53:07;5.75;;;4.32;;
11427;SDS011;5770;44.504;11.346;2023-06-14T13:55:34;6.47;;;4.50;;
11427;SDS011;5770;44.504;11.346;2023-06-14T13:58:02;6.00;;;4.57;;
11427;SDS011;5770;44.504;11.346;2023-06-14T14:00:29;5.82;;;4.60;;
11427;SDS011;5770;44.504;11.346;2023-06-14T14:02:57;7.10;;;3.83;;
11427;SDS011;5770;44.504;11.346;2023-06-14T14:05:26;6.88;;;4.15;;
11427;SDS011;5770;44.504;11.346;2023-06-14T14:07:54;5.63;;;4.43;;
11427;SDS011;5770;44.504;11.346;2023-06-14T14:10:22;4.78;;;3.75;;
11427;SDS011;5770;44.504;11.346;2023-06-14T14:12:50;5.45;;;4.35;;
11427;SDS011;5770;44.504;11.346;2023-06-14T14:15:18;7.22;;;4.25;;
11427;SDS011;5770;44.504;11.346;2023-06-14T14:17:45;4.68;;;4.22;;
11427;SDS011;5770;44.504;11.346;2023-06-14T14:20:12;7.80;;;4.20;;
11427;SDS011;5770;44.504;11.346;2023-06-14T14:22:42;6.95;;;4.50;;
11427;SDS011;5770;44.504;11.346;2023-06-14T14:25:09;18.50;;;5.30;;
11427;SDS011;5770;44.504;11.346;2023-06-14T14:27:36;7.95;;;4.40;;
11427;SDS011;5770;44.504;11.346;2023-06-14T14:30:05;7.40;;;4.50;;
11427;SDS011;5770;44.504;11.346;2023-06-14T14:32:32;7.25;;;4.20;;
11427;SDS011;5770;44.504;11.346;2023-06-14T14:34:59;4.72;;;4.20;;
11427;SDS011;5770;44.504;11.346;2023-06-14T14:47:16;9.52;;;4.32;;
11427;SDS011;5770;44.504;11.346;2023-06-14T14:49:43;7.28;;;5.22;;
11427;SDS011;5770;44.504;11.346;2023-06-14T14:52:10;5.50;;;4.30;;
11427;SDS011;5770;44.504;11.346;2023-06-14T14:54:38;9.25;;;4.18;;
11427;SDS011;5770;44.504;11.346;2023-06-14T14:57:08;4.70;;;4.20;;
11427;SDS011;5770;44.504;11.346;2023-06-14T14:59:35;4.63;;;4.20;;
11427;SDS011;5770;44.504;11.346;2023-06-14T15:02:03;4.38;;;3.75;;
11427;SDS011;5770;44.504;11.346;2023-06-14T15:04:31;3.80;;;3.50;;
11427;SDS011;5770;44.504;11.346;2023-06-14T15:06:59;5.10;;;3.95;;